createdAt,value
2018-08-11T00:01:55.953Z,63.68
2018-08-11T00:04:23.673Z,63.76
2018-08-11T00:06:51.407Z,65.49
2018-08-11T00:09:19.131Z,63.98
2018-08-11T00:11:46.816Z,64.71
2018-08-11T00:14:14.539Z,64.81
2018-08-11T00:16:42.293Z,64.57
2018-08-11T00:19:09.971Z,65.39
2018-08-11T00:21:37.736Z,65.88
2018-08-11T00:24:05.501Z,65.68
2018-08-11T00:26:33.201Z,65.93
2018-08-11T00:29:00.926Z,65.39
2018-08-11T00:31:28.657Z,65.59
2018-08-11T00:33:56.682Z,65.60
2018-08-11T00:36:24.482Z,66.27
2018-08-11T00:38:52.205Z,65.83
2018-08-11T00:41:19.919Z,65.58
2018-08-11T00:43:47.585Z,66.12
2018-08-11T00:46:15.294Z,66.37
2018-08-11T00:48:42.989Z,67.03
2018-08-11T00:51:10.696Z,66.67
2018-08-11T00:53:38.392Z,67.13
2018-08-11T00:56:06.157Z,66.77
2018-08-11T00:58:33.913Z,67.52
2018-08-11T01:01:01.625Z,67.95
2018-08-11T01:03:29.305Z,67.32
2018-08-11T01:05:56.974Z,68.02
2018-08-11T01:08:24.669Z,68.70
2018-08-11T01:10:52.343Z,68.79
2018-08-11T01:13:20.083Z,69.50
2018-08-11T01:15:47.778Z,69.76
2018-08-11T01:18:15.446Z,69.81
2018-08-11T01:20:43.144Z,69.49
2018-08-11T01:23:10.853Z,69.29
2018-08-11T01:25:38.566Z,70.33
2018-08-11T01:28:06.324Z,69.62
2018-08-11T01:30:34.013Z,69.59
2018-08-11T01:33:01.851Z,70.49
2018-08-11T01:35:29.513Z,70.60
2018-08-11T01:37:57.212Z,71.04
2018-08-11T01:40:24.881Z,71.19
2018-08-11T01:42:52.565Z,71.86
2018-08-11T01:45:20.311Z,72.30
2018-08-11T01:47:48.081Z,72.11
2018-08-11T01:50:16.206Z,71.84
2018-08-11T01:52:45.139Z,72.27
2018-08-11T01:55:14.407Z,71.63
2018-08-11T01:57:42.165Z,71.74
2018-08-11T02:00:11.728Z,71.55
2018-08-11T02:02:39.833Z,71.50
2018-08-11T02:05:08.628Z,72.16
2018-08-11T02:07:36.796Z,72.28
2018-08-11T02:10:06.345Z,71.63
2018-08-11T02:12:34.077Z,72.03
2018-08-11T02:15:01.830Z,72.89
2018-08-11T02:17:29.525Z,73.22
2018-08-11T02:19:57.228Z,72.97
2018-08-11T02:22:24.958Z,73.82
2018-08-11T02:24:52.705Z,73.43
2018-08-11T02:27:20.406Z,73.65
2018-08-11T02:29:48.118Z,73.89
2018-08-11T02:32:15.810Z,73.97
2018-08-11T02:34:43.573Z,73.27
2018-08-11T02:37:11.295Z,73.41
2018-08-11T02:39:38.958Z,74.18
2018-08-11T02:42:06.721Z,73.46
2018-08-11T02:44:34.391Z,73.44
2018-08-11T02:47:02.136Z,73.46
2018-08-11T02:49:29.802Z,73.18
2018-08-11T02:51:57.439Z,72.96
2018-08-11T02:54:25.101Z,73.42
2018-08-11T02:56:52.753Z,73.58
2018-08-11T02:59:24.068Z,74.60
2018-08-11T03:01:52.569Z,74.54
2018-08-11T03:04:20.350Z,73.38
2018-08-11T03:06:48.031Z,73.45
2018-08-11T03:09:15.698Z,73.16
2018-08-11T03:11:43.409Z,73.65
2018-08-11T03:14:11.146Z,73.20
2018-08-11T03:16:38.745Z,72.89
2018-08-11T03:19:06.411Z,72.29
2018-08-11T03:21:34.081Z,72.22
2018-08-11T03:24:01.782Z,72.28
2018-08-11T03:26:29.563Z,71.60
2018-08-11T03:28:57.257Z,71.29
2018-08-11T03:31:24.929Z,71.08
2018-08-11T03:33:52.613Z,70.67
2018-08-11T03:36:20.305Z,70.16
2018-08-11T03:38:47.984Z,69.24
2018-08-11T03:41:15.718Z,69.41
2018-08-11T03:43:43.372Z,68.64
2018-08-11T03:46:11.038Z,65.67
2018-08-11T03:48:38.735Z,60.02
2018-08-11T03:51:06.448Z,56.96
2018-08-11T03:53:34.177Z,56.55
2018-08-11T03:56:01.871Z,51.71
2018-08-11T03:58:29.530Z,46.33
2018-08-11T04:00:57.221Z,42.50
2018-08-11T04:03:24.881Z,40.02
2018-08-11T04:05:52.535Z,40.73
2018-08-11T04:08:20.180Z,42.32
2018-08-11T04:10:47.818Z,39.90
2018-08-11T04:13:15.496Z,37.28
2018-08-11T04:15:43.162Z,34.21
2018-08-11T04:18:10.822Z,32.15
2018-08-11T04:20:38.545Z,31.33
2018-08-11T04:23:06.200Z,31.75
2018-08-11T04:25:33.949Z,31.84
2018-08-11T04:28:01.625Z,33.43
2018-08-11T04:30:29.285Z,34.17
2018-08-11T04:32:56.957Z,34.37
2018-08-11T04:35:24.744Z,33.77
2018-08-11T04:37:52.494Z,33.99
2018-08-11T04:40:20.194Z,33.49
2018-08-11T04:42:47.867Z,34.50
2018-08-11T04:45:15.533Z,35.76
2018-08-11T04:47:43.241Z,36.45
2018-08-11T04:50:10.942Z,35.84
2018-08-11T04:52:38.584Z,35.63
2018-08-11T04:55:06.280Z,34.27
2018-08-11T04:57:33.957Z,31.64
2018-08-11T05:00:01.625Z,30.94
2018-08-11T05:02:29.346Z,31.24
2018-08-11T05:04:57.030Z,31.91
2018-08-11T05:07:24.710Z,32.88
2018-08-11T05:09:52.393Z,32.42
2018-08-11T05:12:20.054Z,32.12
2018-08-11T05:14:47.822Z,34.82
2018-08-11T05:17:15.497Z,35.82
2018-08-11T05:19:43.149Z,36.11
2018-08-11T05:22:10.821Z,35.83
2018-08-11T05:24:38.474Z,36.28
2018-08-11T05:27:06.183Z,40.32
2018-08-11T05:29:33.863Z,43.91
2018-08-11T05:32:01.755Z,43.24
2018-08-11T05:34:29.429Z,38.01
2018-08-11T05:36:57.123Z,36.14
2018-08-11T05:39:24.821Z,32.13
2018-08-11T05:41:52.517Z,29.48
2018-08-11T05:44:20.233Z,30.17
2018-08-11T05:46:47.905Z,29.93
2018-08-11T05:49:15.612Z,30.03
2018-08-11T05:51:43.297Z,31.97
2018-08-11T05:54:10.941Z,36.68
2018-08-11T05:56:38.674Z,41.78
2018-08-11T05:59:06.416Z,37.80
2018-08-11T06:01:34.105Z,39.57
2018-08-11T06:04:01.916Z,40.19
2018-08-11T06:06:29.566Z,42.15
2018-08-11T06:08:57.263Z,41.89
2018-08-11T06:11:24.953Z,39.79
2018-08-11T06:13:52.617Z,37.86
2018-08-11T06:16:20.340Z,32.95
2018-08-11T06:18:48.089Z,31.58
2018-08-11T06:21:15.884Z,30.03
2018-08-11T06:23:43.537Z,31.69
2018-08-11T06:26:11.265Z,30.90
2018-08-11T06:28:38.998Z,31.54
2018-08-11T06:31:06.702Z,30.30
2018-08-11T06:33:34.391Z,32.02
2018-08-11T06:36:02.079Z,32.56
2018-08-11T06:38:29.776Z,32.16
2018-08-11T06:40:57.644Z,31.29
2018-08-11T06:43:25.190Z,30.59
2018-08-11T06:45:52.893Z,30.77
2018-08-11T06:48:20.590Z,29.91
2018-08-11T06:50:48.282Z,30.37
2018-08-11T06:53:15.981Z,31.08
2018-08-11T06:55:43.666Z,28.98
2018-08-11T06:58:11.325Z,30.10
2018-08-11T07:00:38.985Z,29.31
2018-08-11T07:03:06.779Z,31.22
2018-08-11T07:05:34.438Z,31.04
2018-08-11T07:08:02.133Z,31.03
2018-08-11T07:10:29.813Z,34.29
2018-08-11T07:12:57.684Z,35.60
2018-08-11T07:15:25.416Z,37.24
2018-08-11T07:17:53.073Z,35.19
2018-08-11T07:20:20.728Z,34.33
2018-08-11T07:22:48.392Z,34.29
2018-08-11T07:25:16.096Z,34.54
2018-08-11T07:27:43.864Z,37.15
2018-08-11T07:30:11.595Z,37.47
2018-08-11T07:32:39.260Z,37.22
2018-08-11T07:35:06.968Z,37.91
2018-08-11T07:37:34.761Z,38.14
2018-08-11T07:40:03.810Z,39.65
2018-08-11T07:42:31.562Z,40.07
2018-08-11T07:44:59.231Z,39.30
2018-08-11T07:47:27.049Z,38.38
2018-08-11T07:49:54.694Z,39.67
2018-08-11T07:52:22.353Z,39.46
2018-08-11T07:54:50.022Z,39.80
2018-08-11T07:57:17.717Z,38.24
2018-08-11T07:59:45.515Z,38.36
2018-08-11T08:02:13.188Z,39.40
2018-08-11T08:04:40.960Z,38.69
2018-08-11T08:07:08.778Z,38.35
2018-08-11T08:09:36.446Z,38.13
2018-08-11T08:12:04.174Z,39.06
2018-08-11T08:14:31.843Z,39.31
2018-08-11T08:16:59.487Z,41.13
2018-08-11T08:19:27.199Z,39.83
2018-08-11T08:21:54.909Z,38.46
2018-08-11T08:24:22.630Z,37.89
2018-08-11T08:26:50.355Z,36.68
2018-08-11T08:29:17.997Z,37.56
2018-08-11T08:31:45.694Z,38.18
2018-08-11T08:34:13.392Z,40.31
2018-08-11T08:36:41.131Z,37.63
2018-08-11T08:39:11.265Z,38.45
2018-08-11T08:41:39.179Z,37.55
2018-08-11T08:44:06.971Z,36.68
2018-08-11T08:46:34.631Z,36.85
2018-08-11T08:49:02.314Z,37.32
2018-08-11T08:51:29.985Z,37.96
2018-08-11T08:53:57.731Z,37.14
2018-08-11T08:56:25.499Z,37.57
2018-08-11T08:58:53.380Z,39.04
2018-08-11T09:01:21.083Z,38.69
2018-08-11T09:03:48.786Z,38.25
2018-08-11T09:06:16.464Z,38.01
2018-08-11T09:08:44.152Z,37.80
2018-08-11T09:11:11.855Z,38.40
2018-08-11T09:13:39.540Z,38.84
2018-08-11T09:16:07.563Z,41.29
2018-08-11T09:18:35.354Z,40.95
2018-08-11T09:21:03.065Z,40.50
2018-08-11T09:23:30.746Z,37.24
2018-08-11T09:25:58.408Z,37.72
2018-08-11T09:28:26.117Z,35.08
2018-08-11T09:30:53.857Z,35.76
2018-08-11T09:33:21.543Z,37.50
2018-08-11T09:35:49.226Z,34.01
2018-08-11T09:38:17.000Z,33.11
2018-08-11T09:40:44.697Z,32.05
2018-08-11T09:43:12.426Z,34.65
2018-08-11T09:45:40.113Z,37.78
2018-08-11T09:48:07.845Z,39.28
2018-08-11T09:50:35.521Z,37.87
2018-08-11T09:53:03.258Z,34.60
2018-08-11T09:55:31.262Z,33.82
2018-08-11T09:57:58.925Z,32.42
2018-08-11T10:00:32.176Z,31.26
2018-08-11T10:02:59.870Z,31.09
2018-08-11T10:05:27.604Z,32.54
2018-08-11T10:07:55.345Z,31.50
2018-08-11T10:10:23.038Z,33.43
2018-08-11T10:12:50.730Z,31.92
2018-08-11T10:15:18.477Z,30.57
2018-08-11T10:17:46.152Z,31.03
2018-08-11T10:20:13.851Z,31.85
2018-08-11T10:22:41.608Z,30.93
2018-08-11T10:25:09.301Z,29.11
2018-08-11T10:27:36.972Z,29.72
2018-08-11T10:30:06.004Z,29.82
2018-08-11T10:32:33.790Z,29.83
2018-08-11T10:35:01.530Z,31.66
2018-08-11T10:37:29.198Z,32.39
2018-08-11T10:39:56.919Z,33.28
2018-08-11T10:42:24.581Z,30.93
2018-08-11T10:44:52.281Z,30.88
2018-08-11T10:47:20.030Z,31.00
2018-08-11T10:49:47.691Z,30.65
2018-08-11T10:52:15.344Z,29.41
2018-08-11T10:54:43.030Z,31.45
2018-08-11T10:57:10.713Z,30.06
2018-08-11T10:59:38.414Z,29.22
2018-08-11T11:02:06.550Z,29.51
2018-08-11T11:04:34.223Z,29.14
2018-08-11T11:07:01.927Z,28.75
2018-08-11T11:09:29.589Z,30.14
2018-08-11T11:11:57.286Z,29.05
2018-08-11T11:14:25.023Z,28.64
2018-08-11T11:16:52.657Z,29.41
2018-08-11T11:19:20.337Z,28.96
2018-08-11T11:21:47.995Z,27.46
2018-08-11T11:24:15.715Z,27.93
2018-08-11T11:26:43.827Z,27.80
2018-08-11T11:29:11.523Z,28.64
2018-08-11T11:31:40.088Z,27.80
2018-08-11T11:34:07.756Z,28.42
2018-08-11T11:36:35.432Z,25.93
2018-08-11T11:39:04.066Z,24.66
2018-08-11T11:41:31.757Z,25.24
2018-08-11T11:43:59.462Z,24.62
2018-08-11T11:46:27.244Z,25.03
2018-08-11T11:48:54.937Z,27.40
2018-08-11T11:51:22.635Z,27.97
2018-08-11T11:53:50.353Z,26.96
2018-08-11T11:56:18.055Z,28.29
2018-08-11T11:58:45.738Z,28.36
2018-08-11T12:01:13.449Z,30.09
2018-08-11T12:03:41.126Z,29.97
2018-08-11T12:06:08.810Z,29.95
2018-08-11T12:08:36.516Z,27.94
2018-08-11T12:11:04.226Z,27.98
2018-08-11T12:13:31.922Z,27.57
2018-08-11T12:15:59.598Z,26.53
2018-08-11T12:18:27.346Z,26.06
2018-08-11T12:20:55.038Z,26.82
2018-08-11T12:23:22.706Z,25.35
2018-08-11T12:25:50.382Z,25.28
2018-08-11T12:28:18.074Z,24.34
2018-08-11T12:30:45.800Z,24.61
2018-08-11T12:33:13.499Z,25.08
2018-08-11T12:35:41.227Z,24.01
2018-08-11T12:38:08.923Z,25.35
2018-08-11T12:40:36.631Z,26.14
2018-08-11T12:43:04.370Z,25.49
2018-08-11T12:45:32.040Z,23.58
2018-08-11T12:47:59.811Z,23.47
2018-08-11T12:50:27.535Z,24.30
2018-08-11T12:52:55.217Z,23.80
2018-08-11T12:55:22.966Z,23.26
2018-08-11T12:57:50.698Z,24.56
2018-08-11T13:00:18.390Z,25.09
2018-08-11T13:02:46.058Z,26.18
2018-08-11T13:05:13.721Z,27.65
2018-08-11T13:07:41.969Z,28.50
2018-08-11T13:10:09.744Z,28.80
2018-08-11T13:12:37.720Z,29.68
2018-08-11T13:15:05.921Z,29.49
2018-08-11T13:17:33.618Z,29.74
2018-08-11T13:20:01.299Z,28.63
2018-08-11T13:22:29.087Z,28.76
2018-08-11T13:24:56.774Z,27.65
2018-08-11T13:27:24.477Z,27.29
2018-08-11T13:29:52.525Z,26.87
2018-08-11T13:32:20.217Z,25.69
2018-08-11T13:34:47.981Z,25.00
2018-08-11T13:37:15.670Z,24.97
2018-08-11T13:39:48.078Z,24.41
2018-08-11T13:42:15.746Z,24.31
2018-08-11T13:44:43.442Z,24.41
2018-08-11T13:47:11.123Z,25.08
2018-08-11T13:49:38.925Z,24.95
2018-08-11T13:52:06.656Z,24.23
2018-08-11T13:54:34.356Z,25.15
2018-08-11T13:57:02.021Z,24.77
2018-08-11T13:59:29.692Z,24.43
2018-08-11T14:01:57.383Z,23.92
2018-08-11T14:04:25.165Z,24.65
2018-08-11T14:06:52.840Z,24.14
2018-08-11T14:09:20.553Z,24.67
2018-08-11T14:11:48.237Z,24.27
2018-08-11T14:14:15.915Z,23.76
2018-08-11T14:16:43.601Z,24.71
2018-08-11T14:19:11.283Z,23.98
2018-08-11T14:21:38.975Z,23.40
2018-08-11T14:24:06.733Z,23.92
2018-08-11T14:26:34.434Z,24.94
2018-08-11T14:29:02.149Z,24.45
2018-08-11T14:31:29.832Z,24.11
2018-08-11T14:33:57.629Z,24.32
2018-08-11T14:36:25.293Z,24.14
2018-08-11T14:38:52.962Z,25.67
2018-08-11T14:41:20.677Z,26.13
2018-08-11T14:43:48.471Z,26.37
2018-08-11T14:46:16.126Z,24.87
2018-08-11T14:48:43.907Z,25.53
2018-08-11T14:51:11.667Z,25.04
2018-08-11T14:53:39.365Z,24.34
2018-08-11T14:56:07.101Z,23.70
2018-08-11T14:58:34.802Z,24.44
2018-08-11T15:01:02.464Z,24.49
2018-08-11T15:03:30.325Z,23.73
2018-08-11T15:05:58.058Z,23.91
2018-08-11T15:08:25.725Z,23.88
2018-08-11T15:10:53.477Z,24.12
2018-08-11T15:15:54.340Z,24.88
2018-08-11T15:18:22.500Z,24.36
2018-08-11T15:20:50.161Z,24.34
2018-08-11T15:23:17.925Z,25.18
2018-08-11T15:25:45.645Z,24.34
2018-08-11T15:28:13.370Z,24.85
2018-08-11T15:30:41.187Z,24.75
2018-08-11T15:33:08.873Z,24.46
2018-08-11T15:35:36.576Z,25.59
2018-08-11T15:38:04.317Z,25.17
2018-08-11T15:40:32.297Z,25.65
2018-08-11T15:43:00.010Z,25.91
2018-08-11T15:45:27.769Z,25.89
2018-08-11T15:47:55.482Z,25.25
2018-08-11T15:50:23.155Z,25.00
2018-08-11T15:52:50.865Z,25.04
2018-08-11T15:55:18.557Z,25.09
2018-08-11T15:57:46.250Z,24.76
2018-08-11T16:00:13.997Z,24.52
2018-08-11T16:02:41.703Z,24.81
2018-08-11T16:05:09.450Z,24.24
2018-08-11T16:07:37.158Z,24.80
2018-08-11T16:10:06.102Z,25.63
2018-08-11T16:12:34.034Z,25.73
2018-08-11T16:15:01.720Z,25.76
2018-08-11T16:17:29.413Z,25.82
2018-08-11T16:19:57.097Z,26.20
2018-08-11T16:22:24.788Z,27.14
2018-08-11T16:24:52.496Z,27.30
2018-08-11T16:27:20.232Z,27.66
2018-08-11T16:29:47.991Z,28.30
2018-08-11T16:32:15.710Z,28.57
2018-08-11T16:34:43.398Z,28.80
2018-08-11T16:37:11.133Z,28.69
2018-08-11T16:39:38.914Z,29.34
2018-08-11T16:42:06.655Z,29.19
2018-08-11T16:44:34.370Z,29.00
2018-08-11T16:47:02.058Z,32.09
2018-08-11T16:49:29.729Z,32.93
2018-08-11T16:51:57.559Z,33.66
2018-08-11T16:54:25.237Z,33.85
2018-08-11T16:56:52.898Z,35.28
2018-08-11T16:59:20.635Z,36.06
2018-08-11T17:01:48.253Z,36.17
2018-08-11T17:04:15.984Z,37.77
2018-08-11T17:06:43.627Z,37.88
2018-08-11T17:09:11.722Z,38.30
2018-08-11T17:11:39.378Z,38.54
2018-08-11T17:14:07.534Z,40.04
2018-08-11T17:16:35.554Z,39.61
2018-08-11T17:19:03.253Z,41.10
2018-08-11T17:21:30.929Z,41.74
2018-08-11T17:23:58.894Z,42.55
2018-08-11T17:26:26.561Z,43.21
2018-08-11T17:28:54.266Z,43.67
2018-08-11T17:31:21.982Z,44.61
2018-08-11T17:33:49.641Z,44.95
2018-08-11T17:36:17.452Z,45.63
2018-08-11T17:38:45.144Z,45.66
2018-08-11T17:41:12.823Z,45.22
2018-08-11T17:43:40.508Z,45.08
2018-08-11T17:46:08.163Z,45.00
2018-08-11T17:48:35.871Z,45.38
2018-08-11T17:51:03.585Z,46.13
2018-08-11T17:53:31.286Z,46.44
2018-08-11T17:55:59.097Z,46.07
2018-08-11T17:58:26.778Z,45.97
2018-08-11T18:00:54.481Z,46.37
2018-08-11T18:03:22.141Z,46.54
2018-08-11T18:05:49.856Z,46.43
2018-08-11T18:08:17.606Z,46.57
2018-08-11T18:10:45.417Z,47.04
2018-08-11T18:13:13.201Z,47.07
2018-08-11T18:15:40.918Z,48.06
2018-08-11T18:18:08.714Z,47.81
2018-08-11T18:20:36.454Z,48.95
2018-08-11T18:23:08.086Z,48.76
2018-08-11T18:25:36.015Z,48.57
2018-08-11T18:28:03.746Z,48.20
2018-08-11T18:30:31.445Z,48.10
2018-08-11T18:32:59.166Z,48.74
2018-08-11T18:35:26.881Z,48.60
2018-08-11T18:37:54.667Z,48.11
2018-08-11T18:40:22.329Z,48.64
2018-08-11T18:42:50.019Z,48.73
2018-08-11T18:45:17.717Z,48.82
2018-08-11T18:47:45.436Z,48.74
2018-08-11T18:50:13.214Z,48.81
2018-08-11T18:52:40.957Z,48.76
2018-08-11T18:55:09.778Z,49.23
2018-08-11T18:57:37.715Z,48.15
2018-08-11T19:00:11.997Z,49.09
2018-08-11T19:02:39.749Z,49.25
2018-08-11T19:05:07.522Z,49.34
2018-08-11T19:07:35.261Z,48.79
2018-08-11T19:10:03.122Z,49.40
2018-08-11T19:12:30.836Z,50.47
2018-08-11T19:14:58.655Z,50.23
2018-08-11T19:17:26.416Z,50.46
2018-08-11T19:19:54.270Z,51.29
2018-08-11T19:22:22.044Z,51.08
2018-08-11T19:24:49.790Z,50.71
2018-08-11T19:27:17.572Z,50.87
2018-08-11T19:29:45.281Z,50.70
2018-08-11T19:32:12.964Z,50.65
2018-08-11T19:34:40.701Z,50.82
2018-08-11T19:37:08.532Z,50.33
2018-08-11T19:39:36.233Z,51.15
2018-08-11T19:42:03.982Z,51.83
2018-08-11T19:44:31.736Z,52.96
2018-08-11T19:46:59.457Z,52.59
2018-08-11T19:49:27.185Z,53.59
2018-08-11T19:51:55.077Z,53.91
2018-08-11T19:54:22.909Z,54.47
2018-08-11T19:56:50.601Z,53.64
2018-08-11T19:59:18.314Z,54.00
2018-08-11T20:01:46.114Z,53.63
2018-08-11T20:04:14.865Z,53.47
2018-08-11T20:06:44.241Z,52.94
2018-08-11T20:09:12.656Z,51.31
2018-08-11T20:11:40.408Z,50.78
2018-08-11T20:14:08.204Z,50.82
2018-08-11T20:16:35.952Z,52.38
2018-08-11T20:19:03.941Z,52.32
2018-08-11T20:21:31.612Z,51.70
2018-08-11T20:23:59.438Z,51.30
2018-08-11T20:26:27.185Z,52.50
2018-08-11T20:28:54.929Z,52.34
2018-08-11T20:31:22.713Z,53.70
2018-08-11T20:33:50.446Z,55.16
2018-08-11T20:36:18.168Z,56.07
2018-08-11T20:38:45.892Z,56.33
2018-08-11T20:41:13.767Z,56.49
2018-08-11T20:43:41.585Z,56.43
2018-08-11T20:46:09.465Z,57.46
2018-08-11T20:48:37.189Z,57.14
2018-08-11T20:51:04.989Z,56.89
2018-08-11T20:53:32.754Z,56.75
2018-08-11T20:56:00.941Z,55.96
2018-08-11T20:58:28.666Z,56.45
2018-08-11T21:00:56.535Z,56.15
2018-08-11T21:03:24.213Z,56.23
2018-08-11T21:05:52.006Z,56.82
2018-08-11T21:08:19.694Z,56.75
2018-08-11T21:10:47.502Z,56.88
2018-08-11T21:13:15.234Z,56.65
2018-08-11T21:15:42.937Z,56.02
2018-08-11T21:18:10.621Z,56.19
2018-08-11T21:20:38.382Z,56.86
2018-08-11T21:23:06.114Z,56.78
2018-08-11T21:25:33.907Z,57.69
2018-08-11T21:28:01.614Z,58.19
2018-08-11T21:30:29.313Z,57.24
2018-08-11T21:32:57.028Z,57.73
2018-08-11T21:35:24.726Z,58.19
2018-08-11T21:37:52.441Z,57.88
2018-08-11T21:40:20.174Z,60.76
2018-08-11T21:42:47.873Z,60.24
2018-08-11T21:45:15.662Z,60.31
2018-08-11T21:47:43.382Z,59.62
2018-08-11T21:50:11.217Z,59.59
2018-08-11T21:52:39.391Z,58.96
2018-08-11T21:55:07.913Z,58.67
2018-08-11T21:57:36.360Z,58.21
2018-08-11T22:00:14.190Z,58.80
2018-08-11T22:02:41.927Z,58.21
2018-08-11T22:05:09.631Z,57.58
2018-08-11T22:07:37.374Z,58.19
2018-08-11T22:10:05.453Z,58.44
2018-08-11T22:12:33.255Z,58.52
2018-08-11T22:15:00.954Z,58.68
2018-08-11T22:17:28.645Z,58.34
2018-08-11T22:19:56.354Z,59.12
2018-08-11T22:22:24.032Z,58.32
2018-08-11T22:24:51.708Z,58.90
2018-08-11T22:27:19.399Z,59.28
2018-08-11T22:29:47.141Z,59.38
2018-08-11T22:32:14.890Z,58.38
2018-08-11T22:34:42.563Z,58.29
2018-08-11T22:37:10.223Z,58.44
2018-08-11T22:39:37.914Z,59.26
2018-08-11T22:42:05.869Z,59.50
2018-08-11T22:44:33.587Z,59.19
2018-08-11T22:47:01.330Z,59.42
2018-08-11T22:49:28.992Z,59.06
2018-08-11T22:51:56.725Z,59.36
2018-08-11T22:54:24.409Z,58.71
2018-08-11T22:56:52.208Z,59.07
2018-08-11T22:59:19.926Z,59.18
2018-08-11T23:01:47.686Z,58.95
2018-08-11T23:04:15.429Z,59.52
2018-08-11T23:06:43.085Z,59.04
2018-08-11T23:09:10.814Z,60.65
2018-08-11T23:11:38.469Z,59.64
2018-08-11T23:14:06.167Z,59.70
2018-08-11T23:16:33.898Z,60.48
2018-08-11T23:19:01.622Z,60.36
2018-08-11T23:21:29.377Z,60.38
2018-08-11T23:23:57.067Z,60.66
2018-08-11T23:26:24.796Z,59.85
2018-08-11T23:28:52.529Z,60.53
2018-08-11T23:31:20.184Z,61.12
2018-08-11T23:33:47.957Z,61.27
2018-08-11T23:36:15.694Z,60.93
2018-08-11T23:38:43.357Z,60.69
2018-08-11T23:41:11.057Z,60.95
2018-08-11T23:43:38.741Z,60.81
2018-08-11T23:46:06.523Z,60.95
2018-08-11T23:48:34.334Z,60.76
2018-08-11T23:51:02.060Z,61.29
2018-08-11T23:53:29.793Z,60.56
2018-08-11T23:55:57.461Z,60.50
2018-08-11T23:58:25.369Z,61.57
